Etusivu
METAR-TAF:

METAR-TAF

Lentoasemat :

Algeciras, Espanja

Leveyspiiri: 36-07-44N, Pituuspiiri: 05-26-28W, korkeus merenpinnasta: 30 m

Tämänhetkinen sää

Tämä raportti tehtiin 32 minuuttia sitten, kello 11.30 UTC
Tuuli 14 kn idästä
Lämpötila 22°C
Kosteus 73%
Ilmanpaine 1019 hPa
Näkyvyys 10 km tai enemmän
Muutamia pilviä 2200 ft:n korkeudessa

METAR: LEAG 251130Z AUTO 08014KT 9999 FEW022 22/17 Q1019

Aika: 14:02 (12:02 UTC)


TAF: puuttuu

Säähavainnot ja -ennusteet yli 4000 lentoasemalta (METAR- ja TAF-raportit).

Käytössä olevat sääasemat on merkitty karttaan keltaisilla ja punaisilla pisteillä.

Aseta hiiri pisteen päälle nähdäksesi sääaseman nimen.

Klikkaa sitten nähdäksesi säähavainnot ja -ennusteet.

Kartan vaihtaminen: klikkaa mustalla rastilla varustettuja vihreitä pisteitä, niin voit zoomata sisään; viivalla varustettua vihreää pistettä, niin voit zoomata ulos tai vihreitä nuolia, niin pääset viereisille kartoille.


METAR-TAF: